Time;durP1;ratioP1;P1;durP2;ratioP2;P2;SDS_P1;SDS_P2;PMS_P1;PMS_P2;Temp;Humidity;BMP_temperature;BMP_pressure;BME280_temperature;BME280_humidity;BME280_pressure;Samples;Min_cycle;Max_cycle;Signal;HPM_P1;HPM_P2
2023/10/08 00:00:39;;;;;;;6.17;3.13;;;19.20;54.20;;;19.36;36.08;99502.97;5010837;28;126557;-82
2023/10/08 00:02:52;;;;;;;7.60;3.70;;;19.20;54.30;;;19.33;35.75;99495.28;5028605;27;120025;-84
2023/10/08 00:05:19;;;;;;;5.50;3.00;;;19.10;54.20;;;19.30;35.89;99507.19;5013349;28;120324;-84
2023/10/08 00:07:45;;;;;;;8.80;3.53;;;19.10;54.20;;;19.29;35.98;99499.97;5015633;28;123405;-83
2023/10/08 00:10:13;;;;;;;5.80;3.33;;;19.10;54.40;;;19.28;36.35;99492.72;5029169;27;123711;-83
2023/10/08 00:12:39;;;;;;;8.43;3.27;;;19.10;54.60;;;19.28;36.07;99503.91;5011514;28;120089;-82
2023/10/08 00:15:10;;;;;;;7.03;3.13;;;19.10;54.50;;;19.28;35.82;99495.50;5028915;27;119897;-82
2023/10/08 00:17:36;;;;;;;6.07;2.83;;;19.10;54.20;;;19.28;35.62;99495.50;5031267;27;123736;-83
2023/10/08 00:20:04;;;;;;;5.03;3.00;;;19.00;53.90;;;19.31;35.27;99499.59;5015957;28;123696;-83
2023/10/08 00:22:35;;;;;;;6.60;3.77;;;19.00;53.60;;;19.31;35.15;99496.78;5030705;27;119316;-82
2023/10/08 00:25:04;;;;;;;7.33;3.30;;;19.00;53.60;;;19.32;35.19;99502.06;5027882;27;119568;-83
2023/10/08 00:27:38;;;;;;;8.23;3.60;;;19.00;53.50;;;19.34;35.36;99507.28;5013749;28;123252;-84
2023/10/08 00:30:13;;;;;;;8.70;3.33;;;19.00;53.60;;;19.33;35.43;99489.66;5016464;28;123806;-82
2023/10/08 00:32:40;;;;;;;8.50;3.87;;;21.10;55.60;;;19.32;35.83;99488.03;5015841;28;119324;-82
2023/10/08 00:35:07;;;;;;;6.43;4.17;;;19.00;54.40;;;19.29;36.07;99480.34;5015461;28;118135;-83
2023/10/08 00:37:34;;;;;;;10.73;4.77;;;19.00;54.50;;;19.28;36.36;99478.69;5016441;28;123701;-83
2023/10/08 00:40:04;;;;;;;7.67;4.20;;;19.00;54.90;;;19.26;36.56;99478.22;5014556;28;122160;-81
2023/10/08 00:42:31;;;;;;;10.30;3.80;;;19.00;55.00;;;19.25;36.35;99476.59;5013326;28;119429;-82
2023/10/08 00:44:57;;;;;;;7.10;3.25;;;19.00;55.00;;;19.23;36.37;99478.94;5016635;28;119128;-83
2023/10/08 00:47:26;;;;;;;6.93;3.30;;;19.00;54.90;;;19.22;36.25;99468.09;5013431;28;124097;-82
2023/10/08 00:50:08;;;;;;;6.00;3.10;;;19.00;54.80;;;19.20;36.25;99463.66;5013461;28;123748;-83
2023/10/08 00:52:45;;;;;;;6.80;3.60;;;18.90;54.70;;;19.19;36.29;99472.44;5030723;27;121499;-83
2023/10/08 00:55:21;;;;;;;6.53;3.50;;;18.90;54.80;;;19.19;36.35;99461.22;5012137;28;119842;-82
2023/10/08 00:57:58;;;;;;;7.13;3.83;;;19.00;55.10;;;19.19;36.60;99459.22;4999585;28;123895;-82
2023/10/08 01:00:33;;;;;;;6.53;3.30;;;18.80;55.20;;;19.18;36.46;99460.41;5012002;28;122799;-83
2023/10/08 01:03:02;;;;;;;6.80;3.50;;;18.90;55.20;;;19.19;36.37;99461.22;5014048;28;119107;-84
2023/10/08 01:05:46;;;;;;;7.50;3.77;;;18.90;55.00;;;19.20;36.19;99457.25;5027720;27;118790;-84
2023/10/08 01:08:34;;;;;;;6.17;3.23;;;18.90;54.90;;;19.19;36.22;99461.22;5016638;28;125030;-83
2023/10/08 01:11:17;;;;;;;6.00;3.30;;;18.90;54.80;;;19.18;36.26;99462.38;5014317;28;123426;-83
2023/10/08 01:13:46;;;;;;;6.30;3.13;;;18.90;54.80;;;19.19;36.23;99458.41;5005998;28;119452;-83
2023/10/08 01:16:14;;;;;;;10.87;3.43;;;18.90;54.80;;;19.19;35.82;99461.22;5010951;28;118081;-83
2023/10/08 01:18:43;;;;;;;7.37;3.30;;;18.90;54.50;;;19.18;35.82;99460.41;5015939;28;124117;-82
2023/10/08 01:21:18;;;;;;;6.50;3.40;;;18.90;54.30;;;19.20;35.56;99451.63;5009358;28;123913;-83
2023/10/08 01:23:47;;;;;;;7.10;3.70;;;18.90;54.20;;;19.20;35.58;99448.84;5009384;28;118854;-83
2023/10/08 01:26:15;;;;;;;6.93;3.30;;;18.90;54.00;;;19.20;35.42;99451.63;5007759;28;118723;-83
2023/10/08 01:28:44;;;;;;;7.80;3.70;;;18.90;53.90;;;19.20;35.22;99454.44;5023895;27;124598;-83
2023/10/08 01:31:12;;;;;;;9.50;3.57;;;18.90;53.70;;;19.20;35.19;99451.63;5005563;28;123973;-81
2023/10/08 01:33:46;;;;;;;7.63;3.07;;;18.90;53.60;;;19.21;35.27;99461.69;5019967;27;119517;-83
2023/10/08 01:36:13;;;;;;;7.97;3.13;;;18.90;53.50;;;19.20;35.09;99460.03;5005345;28;119133;-82
2023/10/08 01:38:41;;;;;;;7.27;3.00;;;18.90;53.50;;;19.21;35.32;99458.88;5005889;28;124058;-83
2023/10/08 01:41:29;;;;;;;6.27;3.03;;;18.90;53.50;;;19.21;35.23;99464.50;5005414;28;124242;-83
2023/10/08 01:43:56;;;;;;;8.37;4.10;;;18.90;53.70;;;19.19;35.56;99466.81;5024388;27;120522;-85
2023/10/08 01:46:22;;;;;;;6.90;3.63;;;18.90;53.90;;;19.18;35.79;99463.22;5014064;28;118978;-83
2023/10/08 01:48:53;;;;;;;9.20;4.43;;;18.90;54.40;;;19.16;36.38;99461.94;5020975;27;126105;-84
2023/10/08 01:51:24;;;;;;;6.20;3.40;;;18.90;54.70;;;19.14;36.64;99464.28;5006963;28;123800;-85
2023/10/08 01:53:58;;;;;;;9.63;4.17;;;18.90;55.20;;;19.12;36.84;99466.59;5008435;28;119225;-84
2023/10/08 01:56:24;;;;;;;10.53;4.63;;;18.80;55.50;;;19.10;37.04;99464.16;5039593;27;118396;-83
2023/10/08 01:58:51;;;;;;;6.87;4.20;;;18.80;55.70;;;19.09;37.38;99467.31;5005063;28;123992;-82
2023/10/08 02:01:21;;;;;;;9.53;4.90;;;18.80;56.10;;;19.07;37.68;99462.03;5005008;28;123964;-83
2023/10/08 02:03:48;;;;;;;13.37;4.90;;;18.80;56.40;;;19.05;37.62;99456.00;5015354;28;118284;-85
2023/10/08 02:06:15;;;;;;;10.00;4.77;;;18.80;57.30;;;19.03;38.00;99460.34;5005563;28;118345;-84
2023/10/08 02:08:42;;;;;;;9.20;4.70;;;18.80;57.00;;;19.00;38.09;99463.84;5007641;28;124438;-85
2023/10/08 02:11:08;;;;;;;8.70;4.20;;;18.70;57.00;;;18.97;38.18;99468.16;4999833;28;123914;-84
2023/10/08 02:13:36;;;;;;;9.90;4.57;;;18.70;57.30;;;18.95;38.44;99473.28;5006998;28;121151;-83
2023/10/08 02:16:03;;;;;;;9.97;4.77;;;18.70;57.50;;;18.94;38.56;99469.69;5011044;28;117776;-82
2023/10/08 02:18:30;;;;;;;9.33;4.50;;;18.70;57.70;;;18.91;38.58;99484.38;5004949;28;123843;-83
2023/10/08 02:20:58;;;;;;;10.07;4.60;;;18.70;58.00;;;18.89;38.74;99475.50;5004552;28;123878;-85
2023/10/08 02:23:25;;;;;;;9.50;5.00;;;18.60;57.90;;;18.87;38.78;99468.63;5004712;28;119694;-84
2023/10/08 02:25:51;;;;;;;9.77;4.90;;;18.60;58.10;;;18.84;38.97;99472.13;5008396;28;119406;-85
2023/10/08 02:28:20;;;;;;;11.67;4.57;;;18.60;58.30;;;18.82;38.96;99471.66;5003548;28;124115;-84
2023/10/08 02:30:46;;;;;;;7.90;4.13;;;18.60;58.40;;;18.79;39.26;99470.38;5005480;28;123831;-85
2023/10/08 02:33:16;;;;;;;9.73;4.37;;;18.60;58.70;;;18.79;39.23;99475.19;5003524;28;119873;-85
2023/10/08 02:35:43;;;;;;;8.60;4.40;;;18.60;58.80;;;18.76;39.40;99473.91;5007144;28;119940;-85
2023/10/08 02:38:13;;;;;;;8.20;4.23;;;18.50;58.80;;;18.72;39.35;99476.53;5012162;28;123190;-85
2023/10/08 02:40:46;;;;;;;8.83;4.13;;;18.50;58.80;;;18.70;39.24;99469.66;5019430;27;124252;-85
2023/10/08 02:43:15;;;;;;;8.40;4.37;;;18.40;58.70;;;18.66;39.27;99477.94;5004408;28;119892;-84
2023/10/08 02:45:47;;;;;;;10.40;4.37;;;18.40;58.70;;;18.64;39.22;99479.44;5007327;28;119801;-85
2023/10/08 02:48:13;;;;;;;6.37;3.77;;;18.40;58.60;;;18.59;39.15;99488.06;5023663;27;123532;-86
2023/10/08 02:50:40;;;;;;;5.50;3.57;;;18.40;58.60;;;18.56;39.12;99478.38;5010228;28;124315;-83
2023/10/08 02:53:10;;;;;;;6.50;3.33;;;18.30;58.50;;;18.52;39.12;99477.47;5017825;27;119175;-85
2023/10/08 02:55:46;;;;;;;7.00;3.93;;;18.30;58.60;;;18.49;39.48;99480.97;5025318;27;119228;-85
2023/10/08 02:58:18;;;;;;;14.20;4.03;;;18.40;58.70;;;18.44;39.35;99468.03;5020658;27;123966;-85
2023/10/08 03:00:50;;;;;;;8.50;3.60;;;18.20;59.20;;;18.40;39.36;99469.88;5004996;28;123630;-85
2023/10/08 03:03:18;;;;;;;13.27;4.40;;;18.20;58.60;;;18.36;39.44;99471.75;5004432;28;119359;-86
2023/10/08 03:05:46;;;;;;;6.00;3.37;;;18.20;58.70;;;18.30;39.67;99476.75;5006175;28;118976;-85
2023/10/08 03:08:21;;;;;;;7.70;3.83;;;18.10;58.80;;;18.27;39.69;99459.84;5016720;28;123198;-84
2023/10/08 03:10:48;;;;;;;8.43;3.93;;;18.10;58.90;;;18.23;39.70;99475.69;5022846;27;123253;-85
2023/10/08 03:13:19;;;;;;;8.17;3.60;;;18.00;58.90;;;18.20;39.87;99468.00;5018761;27;119651;-86
2023/10/08 03:18:50;;;;;;;7.53;3.90;;;18.00;59.30;;;18.12;40.07;99455.75;5007205;28;124418;-85
2023/10/08 03:21:42;;;;;;;9.57;3.80;;;17.90;59.40;;;18.12;40.33;99460.53;4999727;28;123608;-85
2023/10/08 03:24:23;;;;;;;6.83;3.40;;;17.90;59.70;;;18.05;40.42;99447.94;5001112;28;120508;-84
2023/10/08 03:26:55;;;;;;;6.13;3.30;;;17.90;59.60;;;18.01;40.42;99448.97;5006164;28;118947;-85
2023/10/08 03:29:22;;;;;;;7.73;4.00;;;17.80;59.70;;;17.97;40.49;99450.81;5020726;27;123050;-85
2023/10/08 03:34:19;;;;;;;5.60;3.53;;;17.80;60.10;;;17.92;40.72;99453.81;5007069;28;119792;-85
2023/10/08 03:36:59;;;;;;;6.83;3.73;;;17.70;60.30;;;17.91;40.98;99463.38;5014217;27;118567;-85
2023/10/08 03:39:50;;;;;;;6.60;3.57;;;17.70;60.40;;;17.90;41.04;99462.56;5006609;28;124116;-85
2023/10/08 03:42:19;;;;;;;10.10;3.37;;;17.70;60.60;;;17.90;41.08;99472.94;5000236;28;123435;-86
2023/10/08 03:44:50;;;;;;;8.70;3.97;;;17.60;60.70;;;17.86;41.54;99481.19;5010724;28;119396;-85
2023/10/08 03:47:23;;;;;;;7.27;4.03;;;17.60;61.30;;;17.80;41.38;99480.59;5006982;28;119312;-85
2023/10/08 03:49:51;;;;;;;6.83;3.30;;;17.60;61.30;;;17.78;41.55;99476.47;5006572;28;124220;-85
2023/10/08 03:52:23;;;;;;;5.90;3.57;;;17.60;61.40;;;17.76;41.61;99479.63;4992272;28;124814;-85
2023/10/08 03:55:04;;;;;;;6.80;3.87;;;17.60;61.50;;;17.76;41.67;99475.97;5021176;27;118933;-85
2023/10/08 03:57:56;;;;;;;5.10;3.23;;;17.50;61.50;;;17.75;41.71;99482.75;5009521;28;118875;-85
2023/10/08 04:00:18;;;;;;;5.80;3.73;;;17.60;61.80;;;17.75;41.80;99491.94;5008762;28;124051;-86
2023/10/08 04:02:55;;;;;;;6.03;3.10;;;17.50;61.80;;;17.76;41.84;99484.38;5009739;28;125650;-85
2023/10/08 04:05:33;;;;;;;9.43;3.67;;;17.50;62.00;;;17.75;42.16;99491.13;5005930;28;119196;-85
2023/10/08 04:13:01;;;;;;;7.00;3.83;;;17.50;62.30;;;17.71;42.06;99477.03;5006130;28;124357;-85
2023/10/08 04:15:29;;;;;;;5.97;3.50;;;17.40;62.30;;;17.70;41.99;99480.16;5029883;27;115874;-85
2023/10/08 04:17:57;;;;;;;7.20;3.83;;;17.40;62.40;;;17.68;42.15;99477.72;5034517;27;120547;-84
2023/10/08 04:20:33;;;;;;;7.50;3.50;;;17.40;62.50;;;17.65;41.99;99479.22;5024101;27;124088;-85
2023/10/08 04:23:00;;;;;;;10.87;3.73;;;17.40;62.50;;;17.64;42.06;99469.19;5025152;27;124002;-84
2023/10/08 04:25:28;;;;;;;6.10;3.50;;;17.40;62.40;;;17.62;42.10;99467.91;5019991;27;119293;-84
2023/10/08 04:27:58;;;;;;;7.40;3.60;;;17.40;63.10;;;17.57;42.14;99459.72;5023803;27;119324;-85
2023/10/08 04:30:36;;;;;;;6.80;3.70;;;17.40;62.50;;;17.48;42.39;99448.63;5012053;28;122966;-85
2023/10/08 04:33:07;;;;;;;11.80;4.03;;;17.30;62.50;;;17.44;42.51;99451.31;5026713;27;124335;-85
2023/10/08 04:35:47;;;;;;;6.90;3.43;;;17.30;62.60;;;17.39;42.59;99448.72;5025506;27;119980;-86
2023/10/08 04:38:22;;;;;;;8.53;3.10;;;17.20;62.70;;;17.35;42.57;99444.16;5026700;27;119621;-85
2023/10/08 04:40:53;;;;;;;7.23;3.70;;;17.20;63.00;;;17.31;42.78;99451.59;5014373;27;124054;-86
2023/10/08 04:43:27;;;;;;;7.00;3.30;;;17.10;63.20;;;17.30;42.81;99450.78;5026882;27;124162;-85
2023/10/08 04:45:56;;;;;;;6.10;3.73;;;17.10;63.30;;;17.29;42.93;99451.94;5025141;27;119324;-85
2023/10/08 04:48:25;;;;;;;7.90;3.60;;;17.10;63.50;;;17.29;42.99;99460.31;5010036;28;118548;-86
2023/10/08 04:50:58;;;;;;;6.30;3.60;;;17.10;63.70;;;17.32;43.27;99467.19;5023059;27;124087;-85
2023/10/08 04:53:32;;;;;;;6.50;3.67;;;17.20;64.00;;;17.32;43.34;99468.00;5021852;27;124986;-85
2023/10/08 04:56:05;;;;;;;6.90;3.50;;;17.10;64.10;;;17.31;43.41;99462.78;5024880;27;118902;-85
2023/10/08 04:58:40;;;;;;;9.00;4.03;;;17.40;64.60;;;17.30;43.40;99469.50;5019341;27;118020;-86
2023/10/08 05:12:15;;;;;;;9.77;3.57;;;17.00;64.50;;;17.28;43.51;99471.84;5029800;27;124569;-86
2023/10/08 05:14:55;;;;;;;10.00;4.00;;;17.00;64.60;;;17.25;43.61;99476.13;5022124;27;123917;-85
2023/10/08 05:17:34;;;;;;;9.90;4.23;;;17.00;64.60;;;17.26;43.34;99483.34;5010698;27;118574;-86
2023/10/08 05:22:43;;;;;;;6.60;3.30;;;17.00;64.60;;;17.27;43.59;99484.16;5027783;27;125577;-86
2023/10/08 05:30:28;;;;;;;6.23;3.60;;;17.00;64.50;;;17.31;43.08;99490.69;5029012;27;119495;-85
2023/10/08 05:38:22;;;;;;;7.73;4.00;;;17.00;64.40;;;17.31;42.80;99487.91;5009798;28;119668;-84
2023/10/08 06:10:56;;;;;;;5.00;3.07;;;16.90;65.70;;;17.30;43.89;99511.41;5028719;27;119546;-88
2023/10/08 06:13:29;;;;;;;5.20;2.97;;;17.00;65.90;;;17.31;44.14;99507.47;5027378;27;118867;-87
2023/10/08 06:18:28;;;;;;;9.30;3.90;;;17.00;66.00;;;17.32;43.85;99509.09;5028290;27;124334;-85
2023/10/08 06:21:08;;;;;;;8.80;3.33;;;17.00;66.10;;;17.32;43.94;99509.09;5029018;27;119369;-86
2023/10/08 06:23:41;;;;;;;11.10;3.30;;;17.00;66.10;;;17.32;44.13;99509.91;5022854;27;120902;-86
2023/10/08 06:28:44;;;;;;;9.60;3.60;;;17.00;66.10;;;17.34;43.99;99496.41;5038852;27;123920;-87
2023/10/08 06:31:11;;;;;;;7.17;3.70;;;17.10;66.20;;;17.36;43.90;99502.50;5027593;27;119513;-85
2023/10/08 06:33:42;;;;;;;8.40;3.43;;;17.00;66.00;;;17.38;43.89;99504.91;5001503;28;118537;-86
2023/10/08 06:38:49;;;;;;;6.77;3.30;;;17.00;65.90;;;17.40;43.79;99494.22;5028494;27;123953;-87
2023/10/08 06:41:19;;;;;;;6.57;3.53;;;17.20;66.20;;;17.42;44.12;99500.31;5025448;27;119401;-86
2023/10/08 06:43:50;;;;;;;7.23;3.20;;;17.10;66.40;;;17.45;44.40;99494.03;5024151;27;119091;-86
2023/10/08 06:46:21;;;;;;;5.90;2.83;;;17.20;67.20;;;17.49;44.38;99494.16;5024344;27;124187;-86
2023/10/08 06:48:50;;;;;;;7.67;3.50;;;17.10;67.10;;;17.51;44.18;99506.63;5005246;28;123676;-86
2023/10/08 06:51:21;;;;;;;5.70;3.33;;;17.10;66.80;;;17.52;44.11;99504.66;5023401;27;120500;-87
2023/10/08 06:53:48;;;;;;;6.30;3.37;;;17.30;67.00;;;17.52;44.21;99502.69;5027220;27;119673;-86
2023/10/08 06:56:18;;;;;;;6.70;3.43;;;17.20;66.90;;;17.53;44.15;99493.13;5021553;27;125776;-86
2023/10/08 06:58:53;;;;;;;10.40;4.23;;;17.20;67.10;;;17.55;44.24;99490.81;5012906;27;123117;-86
2023/10/08 07:01:24;;;;;;;5.07;3.00;;;17.20;67.10;;;17.61;44.33;99494.22;5015442;27;119315;-86
2023/10/08 07:03:56;;;;;;;7.17;4.20;;;17.20;67.10;;;17.67;43.79;99502.03;5026746;27;119016;-89
2023/10/08 07:06:31;;;;;;;5.93;3.23;;;17.20;66.60;;;17.76;43.31;99489.97;5019686;27;125424;-86
2023/10/08 07:09:22;;;;;;;8.20;3.40;;;17.30;66.20;;;17.85;42.76;99499.94;5014840;27;122653;-86
2023/10/08 07:11:57;;;;;;;5.57;2.80;;;17.40;65.80;;;17.95;42.54;99515.47;5027509;27;120247;-87
2023/10/08 07:14:26;;;;;;;6.90;3.23;;;17.40;65.50;;;18.06;42.29;99516.69;5041340;27;118133;-86
2023/10/08 07:16:59;;;;;;;8.10;3.87;;;17.50;65.30;;;18.17;42.24;99527.44;5042100;27;124089;-86
2023/10/08 07:19:37;;;;;;;5.83;2.97;;;17.60;65.40;;;18.26;42.33;99525.34;5026555;27;123682;-86
2023/10/08 07:22:17;;;;;;;9.47;3.80;;;17.70;65.50;;;18.33;42.29;99528.41;5008776;27;119410;-85
2023/10/08 07:24:45;;;;;;;10.03;4.10;;;17.70;65.60;;;18.39;42.53;99529.00;4998382;28;119422;-85
2023/10/08 07:27:13;;;;;;;10.53;3.83;;;17.70;65.80;;;18.44;42.60;99525.97;5029750;27;124200;-86
2023/10/08 07:29:40;;;;;;;11.60;4.00;;;17.80;65.90;;;18.48;42.69;99540.88;5029295;27;124026;-86
2023/10/08 07:32:12;;;;;;;9.30;3.83;;;17.90;66.20;;;18.47;42.95;99540.06;5024142;27;119466;-87
2023/10/08 07:34:44;;;;;;;6.50;4.37;;;17.90;66.40;;;18.45;43.05;99539.59;5023949;28;119071;-86
2023/10/08 07:37:11;;;;;;;6.53;3.60;;;17.90;66.50;;;18.46;43.17;99541.25;5023344;27;124141;-87
2023/10/08 07:39:46;;;;;;;9.10;4.00;;;18.00;66.70;;;18.49;43.21;99546.16;5023993;27;123826;-86
2023/10/08 07:42:13;;;;;;;7.93;3.73;;;18.10;66.80;;;18.53;43.19;99530.28;5027101;27;120369;-87
2023/10/08 07:44:39;;;;;;;6.40;3.40;;;18.10;66.60;;;18.58;42.95;99525.63;5023274;27;120318;-87
2023/10/08 07:47:11;;;;;;;8.90;4.00;;;18.10;66.50;;;18.63;43.00;99528.22;5019618;28;124098;-83
2023/10/08 07:49:39;;;;;;;8.37;3.77;;;18.20;66.60;;;18.68;43.10;99523.19;5023526;27;123950;-86
2023/10/08 07:52:08;;;;;;;10.07;3.47;;;18.20;66.80;;;18.76;43.22;99532.69;5028798;27;119906;-85
2023/10/08 07:54:34;;;;;;;8.30;3.90;;;18.30;67.10;;;18.82;42.98;99528.47;5020245;28;119296;-86
2023/10/08 07:57:08;;;;;;;7.13;3.30;;;18.30;67.00;;;18.88;42.71;99527.06;5024192;27;124546;-87
2023/10/08 07:59:41;;;;;;;8.30;3.63;;;18.40;66.70;;;18.93;42.73;99510.03;5024227;27;124666;-88
2023/10/08 08:02:12;;;;;;;9.53;4.00;;;18.40;66.50;;;19.00;42.28;99515.06;5016388;27;119910;-85
2023/10/08 08:04:43;;;;;;;6.60;3.60;;;18.50;66.30;;;19.05;42.43;99508.38;5031154;27;119070;-84
2023/10/08 08:07:15;;;;;;;7.33;3.73;;;18.50;66.00;;;19.10;42.13;99502.53;5023083;27;124072;-86
2023/10/08 08:09:59;;;;;;;7.03;3.13;;;18.60;65.90;;;19.14;41.81;99511.88;5030519;27;122740;-85
2023/10/08 08:12:28;;;;;;;6.57;3.30;;;18.60;65.60;;;19.19;41.86;99509.66;5003523;28;118863;-84
2023/10/08 08:14:55;;;;;;;8.80;3.47;;;18.70;65.90;;;19.25;42.22;99510.22;5007766;28;118026;-84
2023/10/08 08:17:22;;;;;;;7.63;3.50;;;18.70;66.00;;;19.31;42.26;99525.63;5035321;27;124176;-86
2023/10/08 08:19:53;;;;;;;8.70;3.43;;;18.80;66.30;;;19.37;41.97;99541.03;5005502;28;122800;-86
2023/10/08 08:22:30;;;;;;;6.93;3.57;;;18.90;66.00;;;19.42;42.08;99565.19;4996105;28;119529;-85
2023/10/08 08:25:15;;;;;;;9.83;4.37;;;18.90;66.00;;;19.47;41.96;99575.34;5032632;27;119072;-83
2023/10/08 08:27:48;;;;;;;9.17;3.97;;;18.90;65.90;;;19.50;41.98;99589.47;5001218;28;125246;-84
2023/10/08 08:30:18;;;;;;;7.17;3.47;;;19.00;66.20;;;19.51;42.13;99584.69;4985381;28;123428;-82
2023/10/08 08:32:51;;;;;;;9.73;4.10;;;19.00;66.30;;;19.48;41.98;99579.78;5015587;27;119836;-86
2023/10/08 08:35:25;;;;;;;6.13;3.77;;;19.00;66.30;;;19.46;42.30;99582.94;5008780;28;119953;-84
2023/10/08 08:37:54;;;;;;;9.20;4.70;;;19.00;66.40;;;19.45;42.53;99584.13;4998567;28;124274;-85
2023/10/08 08:40:26;;;;;;;10.07;4.73;;;19.00;66.90;;;19.46;42.99;99590.53;5000774;28;124237;-84
2023/10/08 08:42:55;;;;;;;13.07;5.87;;;19.00;67.00;;;19.48;42.88;99594.63;5004715;28;118501;-84
2023/10/08 08:45:26;;;;;;;10.47;5.20;;;19.00;67.20;;;19.49;43.17;99592.63;4989825;28;117981;-86
2023/10/08 08:47:55;;;;;;;11.50;4.57;;;19.00;67.40;;;19.49;42.91;99595.44;4987676;28;123237;-84
2023/10/08 08:50:26;;;;;;;10.30;4.20;;;19.00;67.40;;;19.52;42.80;99605.94;4993172;28;123442;-85
2023/10/08 08:52:53;;;;;;;9.13;4.93;;;19.00;68.20;;;19.56;43.04;99601.28;4984143;28;118951;-86
2023/10/08 08:55:22;;;;;;;12.43;5.00;;;19.10;67.60;;;19.59;43.07;99604.19;4992438;28;118893;-86
2023/10/08 08:57:52;;;;;;;7.00;4.20;;;19.10;67.70;;;19.67;42.77;99613.66;4995030;28;124076;-86
2023/10/08 09:00:25;;;;;;;9.90;4.37;;;19.20;67.80;;;19.75;42.63;99600.69;4984508;28;123776;-83
2023/10/08 09:02:55;;;;;;;11.43;5.27;;;19.30;67.60;;;19.78;42.29;99600.78;4987858;28;118095;-82
2023/10/08 09:05:25;;;;;;;11.00;4.73;;;19.30;67.40;;;19.80;42.49;99598.44;4978510;28;119385;-85
2023/10/08 09:08:03;;;;;;;7.73;4.77;;;19.30;67.30;;;19.84;42.33;99601.34;4962656;28;124081;-83
2023/10/08 09:10:36;;;;;;;17.63;5.23;;;19.40;67.40;;;19.93;42.33;99595.59;4969544;28;123626;-84
2023/10/08 09:13:07;;;;;;;6.70;3.53;;;19.40;67.20;;;20.02;41.98;99590.66;4959845;28;119161;-85
2023/10/08 09:15:34;;;;;;;5.80;3.80;;;19.50;67.10;;;20.14;41.89;99589.78;4971760;28;119611;-85
2023/10/08 09:18:04;;;;;;;10.63;3.87;;;19.60;67.00;;;20.25;41.69;99590.91;4952127;28;124575;-84
2023/10/08 09:20:43;;;;;;;10.60;4.07;;;19.70;66.90;;;20.36;41.31;99580.78;4987865;28;123827;-84
2023/10/08 09:23:17;;;;;;;10.20;4.50;;;19.80;66.80;;;20.47;41.31;99586.69;5003503;27;120463;-85
2023/10/08 09:25:49;;;;;;;8.00;3.17;;;19.90;66.60;;;20.59;41.22;99583.84;4976728;28;119388;-85
2023/10/08 09:28:17;;;;;;;7.90;3.20;;;20.00;66.70;;;20.70;40.88;99578.50;4991247;28;124356;-83
2023/10/08 09:30:48;;;;;;;11.80;3.60;;;20.10;65.90;;;20.78;40.23;99585.13;5007661;28;123930;-84
2023/10/08 09:33:18;;;;;;;11.23;4.00;;;20.10;65.40;;;20.86;40.25;99576.50;4989715;28;119039;-83
2023/10/08 09:35:46;;;;;;;8.10;3.50;;;20.20;64.80;;;20.95;39.79;99587.56;4999763;28;119600;-84
2023/10/08 09:38:22;;;;;;;9.70;4.10;;;20.30;64.70;;;21.04;39.50;99574.16;4999726;28;124273;-84
2023/10/08 09:40:49;;;;;;;10.50;3.80;;;20.40;64.60;;;21.13;39.57;99573.97;4985828;28;124247;-82
2023/10/08 09:43:16;;;;;;;10.53;3.43;;;20.50;64.20;;;21.23;39.07;99581.03;4979006;28;118377;-83
2023/10/08 09:45:55;;;;;;;6.27;3.17;;;20.60;64.10;;;21.32;39.23;99581.63;5017400;28;118134;-84
2023/10/08 09:48:25;;;;;;;7.53;3.70;;;20.70;64.00;;;21.40;39.20;99575.84;5002224;28;123597;-83
2023/10/08 09:50:55;;;;;;;10.40;3.60;;;20.80;63.90;;;21.51;38.96;99569.66;5011834;28;124063;-82
2023/10/08 09:53:35;;;;;;;5.60;3.37;;;20.90;63.80;;;21.58;38.79;99584.69;4998427;28;119264;-83
2023/10/08 09:56:10;;;;;;;6.17;3.23;;;21.00;63.60;;;21.70;38.76;99580.13;5010135;28;119020;-83
2023/10/08 09:58:37;;;;;;;8.63;3.73;;;21.10;63.60;;;21.76;38.30;99573.00;4988580;28;123945;-83
2023/10/08 10:01:04;;;;;;;7.30;3.67;;;21.10;62.50;;;21.81;38.24;99575.53;5032002;27;124381;-83
2023/10/08 10:03:34;;;;;;;6.77;3.60;;;21.20;62.50;;;21.88;38.29;99564.44;5001201;28;119995;-81
2023/10/08 10:06:00;;;;;;;7.90;3.90;;;21.30;62.40;;;21.96;38.05;99566.22;4997956;28;118967;-81
2023/10/08 10:08:28;;;;;;;8.07;3.80;;;21.40;62.30;;;22.04;38.04;99568.00;5003818;28;124071;-81
2023/10/08 10:11:01;;;;;;;5.37;3.50;;;21.40;62.40;;;22.13;38.01;99576.19;5011474;28;123836;-83
2023/10/08 10:13:38;;;;;;;5.70;3.67;;;21.50;62.40;;;22.19;38.06;99574.75;4975995;28;120316;-80
2023/10/08 10:16:08;;;;;;;7.60;3.53;;;21.60;62.40;;;22.27;37.91;99578.50;4972574;28;120034;-80
2023/10/08 10:18:35;;;;;;;12.57;5.20;;;21.70;62.40;;;22.36;37.60;99590.38;5015981;27;125730;-82
2023/10/08 10:21:33;;;;;;;8.20;3.83;;;21.80;62.30;;;22.43;37.93;99584.88;4995727;28;124046;-81
2023/10/08 10:24:05;;;;;;;13.13;4.50;;;21.90;62.10;;;22.52;37.44;99590.28;4990405;28;119406;-81
2023/10/08 10:26:40;;;;;;;15.07;4.27;;;21.90;61.80;;;22.59;37.22;99592.41;4985203;28;119001;-81
2023/10/08 10:29:14;;;;;;;8.40;4.23;;;22.00;61.50;;;22.62;37.18;99592.47;4980460;28;124187;-79
2023/10/08 10:31:53;;;;;;;11.13;4.23;;;22.00;61.20;;;22.64;37.22;99580.81;5005757;28;122937;-80
2023/10/08 10:34:28;;;;;;;7.67;3.57;;;22.10;61.40;;;22.69;37.67;99588.97;4982952;28;118252;-80
2023/10/08 10:37:19;;;;;;;7.47;3.80;;;22.10;61.60;;;22.75;37.55;99578.19;4992448;28;119199;-80
2023/10/08 10:40:00;;;;;;;10.37;4.00;;;22.20;61.80;;;22.80;37.21;99587.16;4999498;28;123545;-82
2023/10/08 10:42:28;;;;;;;11.73;3.50;;;22.30;61.40;;;22.85;37.22;99583.22;4983812;28;124548;-81
2023/10/08 10:44:58;;;;;;;8.17;4.27;;;22.30;61.10;;;22.87;37.25;99581.66;4993662;28;119067;-81
2023/10/08 10:47:27;;;;;;;8.40;4.80;;;22.40;61.30;;;22.93;37.01;99588.59;5026786;27;118449;-81
2023/10/08 10:52:32;;;;;;;6.90;3.90;;;22.50;61.30;;;23.04;37.30;99602.09;4993656;28;124126;-81
2023/10/08 10:57:54;;;;;;;8.80;3.97;;;22.60;61.70;;;23.19;37.62;99594.69;5006818;28;119438;-82
2023/10/08 11:03:04;;;;;;;5.80;3.47;;;22.70;61.50;;;23.26;36.87;99581.50;5013171;28;124384;-81
2023/10/08 11:05:33;;;;;;;10.60;4.23;;;22.70;61.10;;;23.31;36.88;99577.53;4997575;27;120167;-81
2023/10/08 11:08:04;;;;;;;6.77;3.93;;;22.80;61.30;;;23.38;37.08;99580.50;5013196;28;118234;-82
2023/10/08 11:10:41;;;;;;;7.60;3.80;;;22.90;62.00;;;23.47;37.12;99583.03;5011765;28;124782;-82
2023/10/08 11:13:14;;;;;;;8.60;4.10;;;23.00;61.30;;;23.54;36.83;99580.31;5029107;27;124186;-83
2023/10/08 11:15:43;;;;;;;13.70;4.50;;;23.00;61.10;;;23.59;36.91;99572.34;5017324;27;120306;-82
2023/10/08 11:18:15;;;;;;;7.47;4.10;;;23.10;61.10;;;23.67;36.74;99561.13;5043543;27;119107;-81
2023/10/08 11:20:44;;;;;;;7.50;4.33;;;23.20;61.20;;;23.71;36.46;99567.66;5018934;27;124250;-83
2023/10/08 11:23:35;;;;;;;7.67;3.47;;;23.20;60.70;;;23.71;36.48;99568.50;5033941;27;122863;-83
2023/10/08 11:26:06;;;;;;;9.07;4.00;;;21.50;59.00;;;23.77;36.66;99575.41;4994007;27;118591;-82
2023/10/08 11:28:47;;;;;;;5.60;3.33;;;23.30;60.50;;;23.85;36.55;99570.69;4989992;28;118254;-83
2023/10/08 11:31:20;;;;;;;11.33;6.67;;;23.40;60.60;;;23.91;36.55;99565.50;5030220;27;123178;-83
2023/10/08 11:33:56;;;;;;;11.33;5.13;;;23.50;60.80;;;23.97;36.65;99564.81;5011096;27;123912;-83
2023/10/08 11:36:32;;;;;;;9.03;4.40;;;23.50;60.90;;;24.08;36.49;99556.47;5025905;27;119092;-82
2023/10/08 11:39:30;;;;;;;11.47;4.40;;;23.60;60.90;;;24.23;35.72;99557.44;5030931;27;119327;-82
2023/10/08 11:42:25;;;;;;;10.93;4.40;;;23.30;59.70;;;24.35;35.56;99550.72;5027742;27;124106;-84
2023/10/08 11:44:52;;;;;;;6.97;3.30;;;23.70;59.60;;;24.46;35.59;99546.81;5034621;27;124803;-81
2023/10/08 11:47:21;;;;;;;7.30;3.80;;;23.90;60.10;;;24.59;35.69;99541.72;5023464;27;119745;-83
2023/10/08 11:50:00;;;;;;;7.90;3.67;;;24.00;59.80;;;24.68;35.07;99536.53;5041204;27;118975;-82